createdAt,value
2018-08-20T00:01:28.308Z,95359.30
2018-08-20T00:04:00.207Z,95358.92
2018-08-20T00:06:34.675Z,95343.27
2018-08-20T00:09:04.296Z,95352.75
2018-08-20T00:11:33.547Z,95351.01
2018-08-20T00:14:02.835Z,95352.30
2018-08-20T00:16:32.078Z,95356.78
2018-08-20T00:19:01.323Z,95349.61
2018-08-20T00:21:30.636Z,95348.88
2018-08-20T00:23:59.894Z,95358.45
2018-08-20T00:26:29.526Z,95352.36
2018-08-20T00:28:58.782Z,95350.75
2018-08-20T00:31:28.010Z,95352.52
2018-08-20T00:33:57.241Z,95358.09
2018-08-20T00:36:26.487Z,95354.94
2018-08-20T00:38:55.727Z,95358.23
2018-08-20T00:41:24.960Z,95356.46
2018-08-20T00:43:54.235Z,95357.45
2018-08-20T00:46:23.525Z,95358.30
2018-08-20T00:48:52.751Z,95355.38
2018-08-20T00:51:22.020Z,95353.77
2018-08-20T00:53:51.256Z,95361.23
2018-08-20T00:56:20.497Z,95356.97
2018-08-20T00:58:49.751Z,95354.00
2018-08-20T01:01:18.995Z,95357.02
2018-08-20T01:03:48.336Z,95361.69
2018-08-20T01:06:17.580Z,95363.56
2018-08-20T01:08:46.835Z,95359.17
2018-08-20T01:11:16.835Z,95366.53
2018-08-20T01:13:46.159Z,95367.34
2018-08-20T01:16:15.420Z,95369.75
2018-08-20T01:18:44.673Z,95372.38
2018-08-20T01:21:13.999Z,95371.70
2018-08-20T01:23:43.612Z,95375.16
2018-08-20T01:26:12.993Z,95375.16
2018-08-20T01:28:42.231Z,95379.21
2018-08-20T01:31:11.471Z,95380.08
2018-08-20T01:33:40.738Z,95373.63
2018-08-20T01:36:09.982Z,95379.79
2018-08-20T01:38:39.275Z,95376.31
2018-08-20T01:41:08.531Z,95380.44
2018-08-20T01:43:37.758Z,95386.09
2018-08-20T01:46:07.000Z,95378.97
2018-08-20T01:48:36.240Z,95381.56
2018-08-20T01:51:05.506Z,95379.53
2018-08-20T01:53:34.746Z,95385.70
2018-08-20T01:56:04.026Z,95376.96
2018-08-20T01:58:33.251Z,95376.06
2018-08-20T02:01:02.482Z,95378.85
2018-08-20T02:03:31.858Z,95381.42
2018-08-20T02:06:01.108Z,95381.09
2018-08-20T02:08:30.390Z,95377.73
2018-08-20T02:10:59.632Z,95381.64
2018-08-20T02:13:28.870Z,95372.64
2018-08-20T02:15:58.123Z,95376.78
2018-08-20T02:18:27.383Z,95382.62
2018-08-20T02:20:56.629Z,95380.47
2018-08-20T02:23:25.899Z,95380.59
2018-08-20T02:25:55.178Z,95380.67
2018-08-20T02:28:24.462Z,95377.86
2018-08-20T02:30:53.770Z,95371.38
2018-08-20T02:33:23.022Z,95367.37
2018-08-20T02:40:49.211Z,95368.66
2018-08-20T02:43:18.436Z,95374.06
2018-08-20T02:45:47.883Z,95371.80
2018-08-20T02:48:17.130Z,95369.41
2018-08-20T02:50:46.389Z,95368.02
2018-08-20T02:53:15.661Z,95372.61
2018-08-20T02:55:44.908Z,95377.80
2018-08-20T02:58:14.163Z,95375.73
2018-08-20T03:00:43.423Z,95375.41
2018-08-20T03:03:12.651Z,95367.59
2018-08-20T03:05:41.902Z,95363.23
2018-08-20T03:08:11.171Z,95367.02
2018-08-20T03:10:40.410Z,95370.69
2018-08-20T03:13:09.647Z,95370.10
2018-08-20T03:15:38.888Z,95369.16
2018-08-20T03:18:08.200Z,95369.39
2018-08-20T03:20:37.448Z,95363.36
2018-08-20T03:23:07.078Z,95358.24
2018-08-20T03:25:36.339Z,95355.61
2018-08-20T03:28:05.634Z,95359.71
2018-08-20T03:30:34.886Z,95354.23
2018-08-20T03:33:04.227Z,95354.66
2018-08-20T03:35:33.465Z,95355.66
2018-08-20T03:38:02.727Z,95369.55
2018-08-20T03:40:31.982Z,95364.03
2018-08-20T03:43:01.224Z,95360.20
2018-08-20T03:45:30.465Z,95366.20
2018-08-20T03:47:59.709Z,95365.16
2018-08-20T03:50:28.971Z,95367.13
2018-08-20T03:52:58.214Z,95368.74
2018-08-20T03:55:28.693Z,95374.28
2018-08-20T03:57:57.945Z,95375.33
2018-08-20T04:00:27.192Z,95380.08
2018-08-20T04:02:56.430Z,95381.66
2018-08-20T04:05:25.691Z,95381.47
2018-08-20T04:07:54.931Z,95382.66
2018-08-20T04:10:24.169Z,95380.15
2018-08-20T04:12:53.411Z,95377.38
2018-08-20T04:15:22.638Z,95378.70
2018-08-20T04:17:51.867Z,95379.88
2018-08-20T04:20:21.130Z,95382.94
2018-08-20T04:22:50.371Z,95383.88
2018-08-20T04:25:19.610Z,95386.38
2018-08-20T04:27:48.838Z,95382.75
2018-08-20T04:30:18.069Z,95383.20
2018-08-20T04:32:47.305Z,95385.95
2018-08-20T04:35:16.543Z,95388.95
2018-08-20T04:37:45.827Z,95383.97
2018-08-20T04:40:15.079Z,95385.36
2018-08-20T04:42:44.344Z,95384.94
2018-08-20T04:45:13.591Z,95391.03
2018-08-20T04:47:42.835Z,95387.87
2018-08-20T04:50:12.558Z,95390.99
2018-08-20T04:52:41.856Z,95394.08
2018-08-20T04:55:11.111Z,95394.26
2018-08-20T04:57:40.347Z,95397.40
2018-08-20T05:00:10.943Z,95399.71
2018-08-20T05:02:40.205Z,95396.90
2018-08-20T05:05:09.442Z,95403.88
2018-08-20T05:07:38.728Z,95410.68
2018-08-20T05:10:08.340Z,95402.95
2018-08-20T05:12:37.567Z,95402.35
2018-08-20T05:15:06.949Z,95407.20
2018-08-20T05:17:36.172Z,95399.04
2018-08-20T05:20:06.203Z,95398.23
2018-08-20T05:22:35.437Z,95398.38
2018-08-20T05:25:05.055Z,95398.52
2018-08-20T05:27:34.293Z,95401.91
2018-08-20T05:30:03.532Z,95397.02
2018-08-20T05:32:32.762Z,95394.85
2018-08-20T05:35:02.014Z,95398.06
2018-08-20T05:37:31.250Z,95397.27
2018-08-20T05:40:00.730Z,95403.88
2018-08-20T05:42:29.971Z,95400.05
2018-08-20T05:44:59.218Z,95401.42
2018-08-20T05:47:28.452Z,95405.41
2018-08-20T05:49:57.678Z,95399.69
2018-08-20T05:52:27.014Z,95401.89
2018-08-20T05:54:56.219Z,95397.86
2018-08-20T05:57:25.471Z,95400.29
2018-08-20T05:59:54.958Z,95397.72
2018-08-20T06:02:24.186Z,95397.36
2018-08-20T06:04:53.385Z,95409.09
2018-08-20T06:07:22.658Z,95412.78
2018-08-20T06:09:51.902Z,95414.17
2018-08-20T06:12:21.174Z,95415.73
2018-08-20T06:14:50.396Z,95414.59
2018-08-20T06:17:19.631Z,95409.42
2018-08-20T06:19:48.868Z,95405.64
2018-08-20T06:22:18.103Z,95408.06
2018-08-20T06:24:47.330Z,95412.28
2018-08-20T06:27:16.567Z,95415.51
2018-08-20T06:29:45.802Z,95404.94
2018-08-20T06:32:15.051Z,95409.92
2018-08-20T06:34:44.279Z,95403.96
2018-08-20T06:37:13.526Z,95400.91
2018-08-20T06:39:42.750Z,95404.58
2018-08-20T06:42:12.000Z,95402.67
2018-08-20T06:44:41.240Z,95404.15
2018-08-20T06:47:10.486Z,95403.75
2018-08-20T06:49:39.711Z,95403.80
2018-08-20T06:52:08.943Z,95402.84
2018-08-20T06:54:39.428Z,95400.88
2018-08-20T06:57:08.662Z,95405.96
2018-08-20T06:59:38.000Z,95407.85
2018-08-20T07:02:07.251Z,95405.16
2018-08-20T07:04:36.468Z,95408.80
2018-08-20T07:07:05.723Z,95407.61
2018-08-20T07:09:34.959Z,95395.98
2018-08-20T07:12:04.255Z,95396.41
2018-08-20T07:14:33.759Z,95394.98
2018-08-20T07:17:02.993Z,95391.67
2018-08-20T07:19:32.272Z,95394.84
2018-08-20T07:22:01.487Z,95394.30
2018-08-20T07:24:30.714Z,95393.94
2018-08-20T07:26:59.958Z,95396.42
2018-08-20T07:29:43.199Z,95393.81
2018-08-20T07:32:13.543Z,95399.77
2018-08-20T07:34:43.859Z,95392.36
2018-08-20T07:37:14.808Z,95396.59
2018-08-20T07:39:46.075Z,95397.39
2018-08-20T07:42:15.333Z,95394.48
2018-08-20T07:44:45.378Z,95394.65
2018-08-20T07:47:14.636Z,95396.31
2018-08-20T07:49:43.887Z,95403.38
2018-08-20T07:52:13.168Z,95398.73
2018-08-20T07:54:42.405Z,95402.22
2018-08-20T07:57:11.736Z,95396.42
2018-08-20T07:59:40.973Z,95398.45
2018-08-20T08:02:10.223Z,95404.92
2018-08-20T08:04:39.462Z,95400.02
2018-08-20T08:07:08.734Z,95395.17
2018-08-20T08:09:37.967Z,95398.81
2018-08-20T08:12:07.663Z,95398.65
2018-08-20T08:14:36.900Z,95396.57
2018-08-20T08:17:06.209Z,95392.48
2018-08-20T08:19:35.461Z,95385.53
2018-08-20T08:22:04.683Z,95383.78
2018-08-20T08:24:33.923Z,95384.08
2018-08-20T08:27:03.142Z,95385.20
2018-08-20T08:29:32.391Z,95380.48
2018-08-20T08:32:01.702Z,95387.85
2018-08-20T08:34:30.943Z,95384.08
2018-08-20T08:37:00.247Z,95389.19
2018-08-20T08:39:30.147Z,95385.53
2018-08-20T08:41:59.374Z,95382.74
2018-08-20T08:44:28.609Z,95386.09
2018-08-20T08:46:57.883Z,95388.43
2018-08-20T08:49:27.129Z,95383.38
2018-08-20T08:51:56.356Z,95382.30
2018-08-20T08:54:25.595Z,95377.09
2018-08-20T08:56:54.822Z,95376.30
2018-08-20T08:59:24.052Z,95382.18
2018-08-20T09:01:53.314Z,95381.78
2018-08-20T09:04:22.545Z,95376.63
2018-08-20T09:06:51.798Z,95374.31
2018-08-20T09:09:21.051Z,95375.37
2018-08-20T09:11:50.286Z,95374.17
2018-08-20T09:14:19.522Z,95375.90
2018-08-20T09:16:48.782Z,95363.30
2018-08-20T09:19:18.011Z,95366.27
2018-08-20T09:21:47.251Z,95365.25
2018-08-20T09:24:16.483Z,95358.77
2018-08-20T09:26:45.723Z,95350.17
2018-08-20T09:29:14.989Z,95347.95
2018-08-20T09:31:44.211Z,95350.86
2018-08-20T09:34:13.496Z,95352.86
2018-08-20T09:36:42.706Z,95351.00
2018-08-20T09:39:11.989Z,95353.75
2018-08-20T09:41:41.215Z,95345.57
2018-08-20T09:44:10.452Z,95351.63
2018-08-20T09:46:39.671Z,95351.00
2018-08-20T09:49:08.961Z,95355.36
2018-08-20T09:51:38.170Z,95339.24
2018-08-20T09:54:07.422Z,95334.70
2018-08-20T09:56:36.638Z,95340.39
2018-08-20T09:59:05.900Z,95337.97
2018-08-20T10:01:35.239Z,95344.16
2018-08-20T10:04:05.049Z,95337.33
2018-08-20T10:06:34.292Z,95333.55
2018-08-20T10:09:04.046Z,95342.52
2018-08-20T10:11:33.279Z,95339.31
2018-08-20T10:14:02.496Z,95334.16
2018-08-20T10:16:31.719Z,95338.78
2018-08-20T10:19:00.955Z,95332.65
2018-08-20T10:21:30.222Z,95329.05
2018-08-20T10:23:59.515Z,95324.69
2018-08-20T10:26:28.759Z,95330.81
2018-08-20T10:28:58.014Z,95330.66
2018-08-20T10:31:27.239Z,95324.30
2018-08-20T10:33:56.477Z,95323.65
2018-08-20T10:36:25.708Z,95321.02
2018-08-20T10:38:54.946Z,95325.23
2018-08-20T10:41:24.205Z,95323.83
2018-08-20T10:43:53.423Z,95324.58
2018-08-20T10:46:28.853Z,95319.95
2018-08-20T10:48:58.788Z,95319.80
2018-08-20T10:51:28.040Z,95316.36
2018-08-20T10:53:58.373Z,95321.03
2018-08-20T10:56:27.899Z,95318.80
2018-08-20T10:58:57.101Z,95312.25
2018-08-20T11:01:26.306Z,95311.79
2018-08-20T11:03:57.069Z,95312.41
2018-08-20T11:06:27.476Z,95307.88
2018-08-20T11:08:56.978Z,95306.19
2018-08-20T11:11:26.215Z,95303.05
2018-08-20T11:13:55.439Z,95300.19
2018-08-20T11:16:24.720Z,95295.19
2018-08-20T11:18:53.980Z,95298.67
2018-08-20T11:21:23.203Z,95300.97
2018-08-20T11:23:52.458Z,95294.11
2018-08-20T11:26:21.694Z,95296.38
2018-08-20T11:28:50.925Z,95288.14
2018-08-20T11:36:17.952Z,95280.66
2018-08-20T11:38:47.306Z,95282.34
2018-08-20T11:41:16.584Z,95283.41
2018-08-20T11:43:45.854Z,95285.41
2018-08-20T11:46:15.086Z,95285.08
2018-08-20T11:48:44.319Z,95275.78
2018-08-20T11:51:13.575Z,95273.01
2018-08-20T11:53:42.971Z,95267.22
2018-08-20T11:56:12.221Z,95266.22
2018-08-20T11:58:41.447Z,95267.87
2018-08-20T12:01:10.686Z,95258.12
2018-08-20T12:03:39.915Z,95262.06
2018-08-20T12:06:09.155Z,95253.63
2018-08-20T12:08:38.380Z,95253.78
2018-08-20T12:11:07.627Z,95253.23
2018-08-20T12:13:36.838Z,95249.05
2018-08-20T12:16:06.099Z,95243.52
2018-08-20T12:18:35.312Z,95238.02
2018-08-20T12:21:04.559Z,95240.86
2018-08-20T12:23:33.779Z,95245.56
2018-08-20T12:26:03.007Z,95245.69
2018-08-20T12:28:32.227Z,95239.80
2018-08-20T12:31:01.467Z,95239.55
2018-08-20T12:33:31.086Z,95238.46
2018-08-20T12:36:00.323Z,95240.48
2018-08-20T12:38:29.663Z,95235.70
2018-08-20T12:40:58.867Z,95227.80
2018-08-20T12:43:28.092Z,95233.74
2018-08-20T12:45:57.339Z,95229.97
2018-08-20T12:48:26.566Z,95226.94
2018-08-20T12:50:55.779Z,95224.89
2018-08-20T12:53:25.024Z,95224.91
2018-08-20T12:55:54.247Z,95222.00
2018-08-20T12:58:23.516Z,95223.10
2018-08-20T13:00:52.763Z,95213.87
2018-08-20T13:03:21.963Z,95203.89
2018-08-20T13:05:51.207Z,95214.91
2018-08-20T13:08:20.466Z,95212.43
2018-08-20T13:10:49.686Z,95208.43
2018-08-20T13:13:18.933Z,95211.09
2018-08-20T13:15:48.212Z,95211.59
2018-08-20T13:18:17.427Z,95205.09
2018-08-20T13:20:46.681Z,95201.38
2018-08-20T13:23:15.931Z,95195.88
2018-08-20T13:25:45.156Z,95192.70
2018-08-20T13:28:14.411Z,95189.20
2018-08-20T13:30:43.912Z,95187.89
2018-08-20T13:33:13.091Z,95192.55
2018-08-20T13:35:42.319Z,95192.00
2018-08-20T13:38:11.570Z,95191.00
2018-08-20T13:40:42.103Z,95186.39
2018-08-20T13:43:11.351Z,95186.00
2018-08-20T13:45:40.612Z,95182.16
2018-08-20T13:48:09.890Z,95185.42
2018-08-20T13:50:39.219Z,95182.02
2018-08-20T13:53:08.488Z,95183.79
2018-08-20T13:55:37.688Z,95184.27
2018-08-20T13:58:06.979Z,95177.06
2018-08-20T14:00:36.231Z,95180.15
2018-08-20T14:03:05.511Z,95176.32
2018-08-20T14:05:34.755Z,95179.09
2018-08-20T14:08:04.043Z,95173.94
2018-08-20T14:10:33.298Z,95167.39
2018-08-20T14:13:02.555Z,95167.21
2018-08-20T14:15:31.790Z,95162.81
2018-08-20T14:18:01.055Z,95164.77
2018-08-20T14:20:30.298Z,95171.59
2018-08-20T14:22:59.540Z,95165.80
2018-08-20T14:25:28.761Z,95161.69
2018-08-20T14:27:57.976Z,95168.73
2018-08-20T14:30:27.260Z,95164.84
2018-08-20T14:32:56.468Z,95168.36
2018-08-20T14:35:25.697Z,95161.03
2018-08-20T14:37:54.947Z,95160.23
2018-08-20T14:40:24.202Z,95162.81
2018-08-20T14:42:53.755Z,95163.38
2018-08-20T14:45:22.967Z,95154.41
2018-08-20T14:47:52.235Z,95156.55
2018-08-20T14:50:21.461Z,95151.86
2018-08-20T14:52:51.911Z,95156.20
2018-08-20T14:55:21.168Z,95153.07
2018-08-20T14:57:50.397Z,95146.41
2018-08-20T15:00:19.655Z,95148.98
2018-08-20T15:02:48.858Z,95145.63
2018-08-20T15:05:18.103Z,95147.98
2018-08-20T15:07:47.338Z,95149.73
2018-08-20T15:10:16.604Z,95146.50
2018-08-20T15:12:45.835Z,95143.79
2018-08-20T15:15:15.131Z,95142.95
2018-08-20T15:17:44.316Z,95138.27
2018-08-20T15:20:13.554Z,95140.47
2018-08-20T15:22:42.799Z,95133.27
2018-08-20T15:25:12.049Z,95133.98
2018-08-20T15:27:41.268Z,95134.53
2018-08-20T15:30:10.519Z,95128.94
2018-08-20T15:32:39.761Z,95131.23
2018-08-20T15:35:08.969Z,95132.53
2018-08-20T15:37:38.201Z,95123.87
2018-08-20T15:40:07.461Z,95130.67
2018-08-20T15:42:36.717Z,95128.27
2018-08-20T15:45:06.088Z,95132.44
2018-08-20T15:47:35.336Z,95129.70
2018-08-20T15:50:04.666Z,95129.30
2018-08-20T15:52:33.891Z,95127.61
2018-08-20T15:55:03.136Z,95127.61
2018-08-20T15:57:32.371Z,95121.73
2018-08-20T16:00:01.612Z,95129.50
2018-08-20T16:02:30.840Z,95124.81
2018-08-20T16:05:01.337Z,95128.55
2018-08-20T16:07:30.889Z,95124.95
2018-08-20T16:10:00.456Z,95119.28
2018-08-20T16:12:29.793Z,95125.53
2018-08-20T16:14:59.062Z,95124.22
2018-08-20T16:17:28.295Z,95109.78
2018-08-20T16:19:57.543Z,95108.67
2018-08-20T16:22:26.769Z,95105.63
2018-08-20T16:24:56.030Z,95102.27
2018-08-20T16:27:25.316Z,95105.47
2018-08-20T16:29:54.579Z,95099.55
2018-08-20T16:32:23.975Z,95105.75
2018-08-20T16:34:53.186Z,95104.89
2018-08-20T16:37:22.400Z,95112.30
2018-08-20T16:39:51.632Z,95106.04
2018-08-20T16:42:20.888Z,95116.74
2018-08-20T16:44:50.138Z,95107.07
2018-08-20T16:47:19.364Z,95107.42
2018-08-20T16:49:48.616Z,95107.73
2018-08-20T16:52:17.854Z,95108.73
2018-08-20T16:54:47.087Z,95091.81
2018-08-20T16:57:16.376Z,95104.91
2018-08-20T16:59:45.631Z,95105.65
2018-08-20T17:02:18.983Z,95108.65
2018-08-20T17:04:48.228Z,95111.97
2018-08-20T17:07:17.470Z,95105.32
2018-08-20T17:09:46.757Z,95110.17
2018-08-20T17:12:16.022Z,95113.75
2018-08-20T17:14:45.275Z,95114.05
2018-08-20T17:17:14.502Z,95114.89
2018-08-20T17:19:45.673Z,95117.31
2018-08-20T17:22:15.207Z,95111.38
2018-08-20T17:24:44.439Z,95121.64
2018-08-20T17:27:13.687Z,95121.01
2018-08-20T17:29:42.923Z,95119.38
2018-08-20T17:32:13.422Z,95123.06
2018-08-20T17:34:43.125Z,95116.23
2018-08-20T17:37:12.391Z,95117.21
2018-08-20T17:40:02.030Z,95119.31
2018-08-20T17:42:32.179Z,95121.36
2018-08-20T17:45:02.149Z,95123.66
2018-08-20T17:47:32.146Z,95120.30
2018-08-20T17:50:01.738Z,95131.47
2018-08-20T17:52:35.056Z,95130.39
2018-08-20T17:55:05.309Z,95126.17
2018-08-20T17:57:34.479Z,95141.14
2018-08-20T18:00:28.290Z,95136.47
2018-08-20T18:02:57.628Z,95147.68
2018-08-20T18:05:26.867Z,95147.25
2018-08-20T18:07:56.099Z,95150.16
2018-08-20T18:10:25.331Z,95151.89
2018-08-20T18:12:54.556Z,95151.10
2018-08-20T18:15:23.798Z,95154.58
2018-08-20T18:17:53.026Z,95150.33
2018-08-20T18:20:22.281Z,95152.94
2018-08-20T18:22:51.545Z,95159.06
2018-08-20T18:25:21.552Z,95159.59
2018-08-20T18:27:50.783Z,95164.97
2018-08-20T18:30:20.678Z,95163.92
2018-08-20T18:32:49.883Z,95175.87
2018-08-20T18:35:23.994Z,95176.75
2018-08-20T18:37:53.280Z,95176.31
2018-08-20T18:40:22.523Z,95182.42
2018-08-20T18:42:51.758Z,95187.16
2018-08-20T18:45:20.995Z,95187.89
2018-08-20T18:47:50.226Z,95188.36
2018-08-20T18:50:19.475Z,95191.47
2018-08-20T18:52:48.723Z,95196.72
2018-08-20T18:55:17.945Z,95194.20
2018-08-20T18:57:47.171Z,95202.53
2018-08-20T19:00:16.552Z,95201.95
2018-08-20T19:02:57.446Z,95200.63
2018-08-20T19:05:26.708Z,95207.39
2018-08-20T19:07:55.926Z,95208.73
2018-08-20T19:10:28.981Z,95213.34
2018-08-20T19:12:58.225Z,95214.97
2018-08-20T19:15:39.811Z,95216.77
2018-08-20T19:18:11.684Z,95213.10
2018-08-20T19:20:41.854Z,95215.56
2018-08-20T19:23:11.171Z,95214.63
2018-08-20T19:25:40.442Z,95213.59
2018-08-20T19:28:24.664Z,95218.59
2018-08-20T19:30:55.428Z,95224.13
2018-08-20T19:33:26.958Z,95224.73
2018-08-20T19:35:56.422Z,95230.44
2018-08-20T19:38:25.671Z,95236.78
2018-08-20T19:41:04.334Z,95231.41
2018-08-20T19:43:38.650Z,95232.16
2018-08-20T19:46:07.922Z,95240.98
2018-08-20T19:48:37.236Z,95243.45
2018-08-20T19:51:08.624Z,95237.37
2018-08-20T19:53:37.882Z,95247.61
2018-08-20T19:56:12.988Z,95243.91
2018-08-20T19:58:44.046Z,95244.41
2018-08-20T20:01:17.314Z,95235.28
2018-08-20T20:03:48.051Z,95241.30
2018-08-20T20:06:18.335Z,95240.23
2018-08-20T20:08:47.567Z,95246.22
2018-08-20T20:11:23.818Z,95240.41
2018-08-20T20:13:55.887Z,95236.84
2018-08-20T20:16:25.480Z,95248.14
2018-08-20T20:18:54.903Z,95246.88
2018-08-20T20:21:24.143Z,95249.53
2018-08-20T20:23:53.465Z,95256.15
2018-08-20T20:26:22.641Z,95258.53
2018-08-20T20:28:51.909Z,95257.01
2018-08-20T20:31:21.155Z,95259.95
2018-08-20T20:33:50.379Z,95263.11
2018-08-20T20:36:24.051Z,95269.09
2018-08-20T20:38:53.549Z,95277.26
2018-08-20T20:41:22.980Z,95277.20
2018-08-20T20:43:52.372Z,95278.84
2018-08-20T20:46:21.723Z,95276.88
2018-08-20T20:48:51.922Z,95279.54
2018-08-20T20:51:21.194Z,95284.95
2018-08-20T20:53:50.443Z,95284.61
2018-08-20T20:56:19.683Z,95283.11
2018-08-20T20:58:48.910Z,95287.67
2018-08-20T21:01:18.145Z,95287.84
2018-08-20T21:03:47.398Z,95289.30
2018-08-20T21:06:16.668Z,95287.83
2018-08-20T21:08:47.724Z,95290.68
2018-08-20T21:11:18.091Z,95294.45
2018-08-20T21:13:47.477Z,95299.20
2018-08-20T21:16:18.306Z,95298.45
2018-08-20T21:18:58.091Z,95305.61
2018-08-20T21:21:27.946Z,95306.42
2018-08-20T21:23:58.170Z,95314.78
2018-08-20T21:26:27.410Z,95313.47
2018-08-20T21:28:56.950Z,95319.55
2018-08-20T21:31:27.387Z,95317.47
2018-08-20T21:33:59.958Z,95317.91
2018-08-20T21:36:29.199Z,95314.94
2018-08-20T21:38:58.444Z,95320.67
2018-08-20T21:41:28.826Z,95317.08
2018-08-20T21:43:58.104Z,95320.38
2018-08-20T21:46:27.367Z,95316.10
2018-08-20T21:48:56.578Z,95316.13
2018-08-20T21:51:27.966Z,95313.17
2018-08-20T21:53:57.251Z,95320.45
2018-08-20T21:56:38.416Z,95319.86
2018-08-20T21:59:07.639Z,95322.51
2018-08-20T22:01:36.862Z,95318.94
2018-08-20T22:04:10.171Z,95323.05
2018-08-20T22:06:40.631Z,95322.63
2018-08-20T22:09:09.854Z,95327.63
2018-08-20T22:11:39.070Z,95325.09
2018-08-20T22:14:08.288Z,95320.09
2018-08-20T22:16:37.559Z,95323.55
2018-08-20T22:19:06.858Z,95329.16
2018-08-20T22:21:36.114Z,95324.66
2018-08-20T22:24:05.406Z,95325.18
2018-08-20T22:26:34.657Z,95326.70
2018-08-20T22:29:03.891Z,95328.17
2018-08-20T22:31:33.108Z,95325.34
2018-08-20T22:34:06.462Z,95328.61
2018-08-20T22:36:35.683Z,95329.02
2018-08-20T22:39:07.793Z,95323.19
2018-08-20T22:41:37.002Z,95326.53
2018-08-20T22:44:06.219Z,95326.12
2018-08-20T22:46:35.454Z,95327.81
2018-08-20T22:49:04.652Z,95328.53
2018-08-20T22:51:33.882Z,95325.64
2018-08-20T22:54:03.078Z,95331.34
2018-08-20T22:56:34.303Z,95332.00
2018-08-20T22:59:09.794Z,95337.59
2018-08-20T23:01:39.025Z,95336.21
2018-08-20T23:04:08.508Z,95331.89
2018-08-20T23:06:37.746Z,95332.06
2018-08-20T23:09:26.816Z,95328.73
2018-08-20T23:11:56.071Z,95334.92
2018-08-20T23:14:25.279Z,95335.25
2018-08-20T23:16:54.506Z,95341.44
2018-08-20T23:19:23.722Z,95351.11
2018-08-20T23:21:54.775Z,95347.23
2018-08-20T23:24:23.990Z,95341.83
2018-08-20T23:26:53.206Z,95348.42
2018-08-20T23:29:22.415Z,95354.97
2018-08-20T23:31:51.636Z,95353.31
2018-08-20T23:34:20.860Z,95357.58
2018-08-20T23:36:50.089Z,95357.78
2018-08-20T23:39:19.296Z,95358.11
2018-08-20T23:41:48.560Z,95359.57
2018-08-20T23:44:18.012Z,95359.18
2018-08-20T23:46:50.468Z,95359.11
2018-08-20T23:49:19.710Z,95366.85
2018-08-20T23:51:48.927Z,95358.80
2018-08-20T23:54:18.142Z,95363.02
2018-08-20T23:56:47.399Z,95364.84
2018-08-20T23:59:16.645Z,95364.23
